createdAt,value
2022-11-19T00:00:04.412Z,17.17
2022-11-19T00:03:09.794Z,16.10
2022-11-19T00:06:17.358Z,17.83
2022-11-19T00:09:20.759Z,16.50
2022-11-19T00:12:42.502Z,16.87
2022-11-19T00:15:48.757Z,16.03
2022-11-19T00:18:51.891Z,16.63
2022-11-19T00:21:54.385Z,18.02
2022-11-19T00:24:57.426Z,16.52
2022-11-19T00:28:00.127Z,17.85
2022-11-19T00:31:11.805Z,18.27
2022-11-19T00:34:14.534Z,18.60
2022-11-19T00:37:17.596Z,17.65
2022-11-19T00:40:20.311Z,20.05
2022-11-19T00:43:42.584Z,18.73
2022-11-19T00:46:45.814Z,21.80
2022-11-19T00:49:49.929Z,20.83
2022-11-19T00:52:52.755Z,19.55
2022-11-19T00:55:55.763Z,18.87
2022-11-19T00:58:58.664Z,20.98
2022-11-19T01:02:01.393Z,20.80
2022-11-19T01:05:04.302Z,19.77
2022-11-19T01:08:07.244Z,20.05
2022-11-19T01:11:23.548Z,19.17
2022-11-19T01:14:26.498Z,20.90
2022-11-19T01:17:29.173Z,21.53
2022-11-19T01:20:32.167Z,21.03
2022-11-19T01:23:35.159Z,22.98
2022-11-19T01:26:41.687Z,22.55
2022-11-19T01:29:48.053Z,20.12
2022-11-19T01:32:52.644Z,18.90
2022-11-19T01:35:57.335Z,22.23
2022-11-19T01:39:00.068Z,19.87
2022-11-19T01:42:03.740Z,22.83
2022-11-19T01:45:08.507Z,24.20
2022-11-19T01:48:34.172Z,21.73
2022-11-19T01:51:43.536Z,21.77
2022-11-19T01:54:50.627Z,22.27
2022-11-19T01:57:59.983Z,21.85
2022-11-19T02:01:03.611Z,24.55
2022-11-19T02:04:07.996Z,23.67
2022-11-19T02:07:12.531Z,22.67
2022-11-19T02:10:15.823Z,25.08
2022-11-19T02:13:41.910Z,22.73
2022-11-19T02:17:03.871Z,23.52
2022-11-19T02:20:34.419Z,25.67
2022-11-19T02:23:46.584Z,25.73
2022-11-19T02:26:52.581Z,28.35
2022-11-19T02:30:14.205Z,30.75
2022-11-19T02:33:28.071Z,28.75
2022-11-19T02:36:44.575Z,27.93
2022-11-19T02:40:00.065Z,24.13
2022-11-19T02:43:24.931Z,27.15
2022-11-19T02:46:27.682Z,27.42
2022-11-19T02:49:33.860Z,29.00
2022-11-19T02:52:38.302Z,27.43
2022-11-19T02:55:41.468Z,25.50
2022-11-19T02:59:09.863Z,26.98
2022-11-19T03:02:35.210Z,24.92
2022-11-19T03:05:44.761Z,27.42
2022-11-19T03:08:48.397Z,27.07
2022-11-19T03:12:06.276Z,27.13
2022-11-19T03:15:39.506Z,27.30
2022-11-19T03:18:59.551Z,26.62
2022-11-19T03:22:10.364Z,29.23
2022-11-19T03:25:18.583Z,28.50
2022-11-19T03:28:33.596Z,28.07
2022-11-19T03:31:38.845Z,30.55
2022-11-19T03:34:45.128Z,33.30
2022-11-19T03:37:52.720Z,30.00
2022-11-19T03:40:58.100Z,28.80
2022-11-19T03:44:07.935Z,28.27
2022-11-19T03:47:19.692Z,27.50
2022-11-19T03:50:56.668Z,28.85
2022-11-19T03:53:59.889Z,31.95
2022-11-19T03:57:05.994Z,28.17
2022-11-19T04:00:11.539Z,29.00
2022-11-19T04:03:14.996Z,31.40
2022-11-19T04:06:17.815Z,31.60
2022-11-19T04:09:20.918Z,31.23
2022-11-19T04:12:25.638Z,29.23
2022-11-19T04:15:28.347Z,31.20
2022-11-19T04:18:31.210Z,29.73
2022-11-19T04:21:34.821Z,31.05
2022-11-19T04:24:37.836Z,31.65
2022-11-19T04:27:40.750Z,29.90
2022-11-19T04:30:44.127Z,32.47
2022-11-19T04:33:47.432Z,30.75
2022-11-19T04:36:51.944Z,30.58
2022-11-19T04:39:54.905Z,35.25
2022-11-19T04:42:57.888Z,31.90
2022-11-19T04:46:00.890Z,29.60
2022-11-19T04:49:04.574Z,30.35
2022-11-19T04:52:07.138Z,32.72
2022-11-19T04:55:11.559Z,33.97
2022-11-19T04:58:16.550Z,34.83
2022-11-19T05:01:24.042Z,32.92
2022-11-19T05:04:26.935Z,33.03
2022-11-19T05:07:30.838Z,32.58
2022-11-19T05:10:38.078Z,30.12
2022-11-19T05:13:41.283Z,34.87
2022-11-19T05:16:44.465Z,32.42
2022-11-19T05:19:47.813Z,33.28
2022-11-19T05:22:51.480Z,37.45
2022-11-19T05:25:54.700Z,34.30
2022-11-19T05:28:57.209Z,34.33
2022-11-19T05:32:02.497Z,34.63
2022-11-19T05:35:12.646Z,32.85
2022-11-19T05:38:16.747Z,32.08
2022-11-19T05:41:21.694Z,33.38
2022-11-19T05:44:25.933Z,34.63
2022-11-19T05:47:28.662Z,36.90
2022-11-19T05:50:32.303Z,36.40
2022-11-19T05:53:38.051Z,37.35
2022-11-19T05:56:42.734Z,35.88
2022-11-19T05:59:49.335Z,37.37
2022-11-19T06:02:59.144Z,34.42
2022-11-19T06:06:10.163Z,40.15
2022-11-19T06:09:13.326Z,35.83
2022-11-19T06:12:19.718Z,33.13
2022-11-19T06:15:32.743Z,37.07
2022-11-19T06:18:39.791Z,40.15
2022-11-19T06:21:44.150Z,38.05
2022-11-19T06:24:49.730Z,39.38
2022-11-19T06:28:04.552Z,37.95
2022-11-19T06:31:09.275Z,40.93
2022-11-19T06:34:12.762Z,39.33
2022-11-19T06:37:19.040Z,38.67
2022-11-19T06:40:24.321Z,38.35
2022-11-19T06:43:33.657Z,35.55
2022-11-19T06:46:38.654Z,34.73
2022-11-19T06:49:51.735Z,38.25
2022-11-19T06:52:58.225Z,31.90
2022-11-19T06:56:07.670Z,38.78
2022-11-19T06:59:13.751Z,31.55
2022-11-19T07:02:21.950Z,32.30
2022-11-19T07:05:25.832Z,31.40
2022-11-19T07:08:38.626Z,32.22
2022-11-19T07:11:48.482Z,29.33
2022-11-19T07:15:01.113Z,32.45
2022-11-19T07:18:10.251Z,31.17
2022-11-19T07:21:19.734Z,30.57
2022-11-19T07:24:27.741Z,32.00
2022-11-19T07:27:30.960Z,32.17
2022-11-19T07:30:35.379Z,34.45
2022-11-19T07:33:48.835Z,31.33
2022-11-19T07:37:03.710Z,29.20
2022-11-19T07:40:18.692Z,27.60
2022-11-19T07:43:23.946Z,29.00
2022-11-19T07:46:27.988Z,26.77
2022-11-19T07:49:33.321Z,26.43
2022-11-19T07:52:37.245Z,28.67
2022-11-19T07:55:41.532Z,25.42
2022-11-19T07:58:47.792Z,26.70
2022-11-19T08:01:55.609Z,27.33
2022-11-19T08:05:05.495Z,26.43
2022-11-19T08:08:12.567Z,25.03
2022-11-19T08:11:28.722Z,26.02
2022-11-19T08:14:36.118Z,27.62
2022-11-19T08:17:58.543Z,26.42
2022-11-19T08:21:11.929Z,25.13
2022-11-19T08:24:23.571Z,26.87
2022-11-19T08:27:38.669Z,26.80
2022-11-19T08:30:53.721Z,27.42
2022-11-19T08:34:02.561Z,27.58
2022-11-19T08:37:13.738Z,27.80
2022-11-19T08:40:18.758Z,27.73
2022-11-19T08:43:32.806Z,25.37
2022-11-19T08:46:43.559Z,25.90
2022-11-19T08:49:57.822Z,28.38
2022-11-19T08:53:06.707Z,24.30
2022-11-19T08:56:18.264Z,26.53
2022-11-19T08:59:27.546Z,25.92
2022-11-19T09:02:31.217Z,28.20
2022-11-19T09:05:42.506Z,25.23
2022-11-19T09:08:59.459Z,27.60
2022-11-19T09:12:08.884Z,29.13
2022-11-19T09:15:24.959Z,26.58
2022-11-19T09:18:29.591Z,25.85
2022-11-19T09:21:33.098Z,27.25
2022-11-19T09:24:37.580Z,27.80
2022-11-19T09:27:45.950Z,29.20
2022-11-19T09:31:11.472Z,28.70
2022-11-19T09:34:22.345Z,27.67
2022-11-19T09:37:36.595Z,29.15
2022-11-19T09:40:46.569Z,27.43
2022-11-19T09:44:18.860Z,30.27
2022-11-19T09:47:53.817Z,25.95
2022-11-19T09:51:09.030Z,25.62
2022-11-19T09:54:19.509Z,26.37
2022-11-19T09:57:55.190Z,25.83
2022-11-19T10:01:05.596Z,29.00
2022-11-19T10:04:22.683Z,28.45
2022-11-19T10:07:53.010Z,27.27
2022-11-19T10:11:14.743Z,28.27
2022-11-19T10:14:27.936Z,26.03
2022-11-19T10:18:15.457Z,27.70
2022-11-19T10:21:30.766Z,28.52
2022-11-19T10:24:47.712Z,28.77
2022-11-19T10:28:08.695Z,31.23
2022-11-19T10:31:19.506Z,30.80
2022-11-19T10:34:36.531Z,27.10
2022-11-19T10:38:03.429Z,27.92
2022-11-19T10:41:20.288Z,28.15
2022-11-19T10:44:46.734Z,30.37
2022-11-19T10:48:18.807Z,28.83
2022-11-19T10:51:41.548Z,26.90
2022-11-19T10:54:49.637Z,27.70
2022-11-19T10:58:23.375Z,29.83
2022-11-19T11:01:43.541Z,31.85
2022-11-19T11:05:02.663Z,33.03
2022-11-19T11:08:17.943Z,29.23
2022-11-19T11:11:54.568Z,31.90
2022-11-19T11:15:17.558Z,30.08
2022-11-19T11:18:31.677Z,31.48
2022-11-19T11:21:44.732Z,32.40
2022-11-19T11:24:51.847Z,30.77
2022-11-19T11:28:20.424Z,31.20
2022-11-19T11:31:32.837Z,32.22
2022-11-19T11:34:43.836Z,28.50
2022-11-19T11:37:59.540Z,31.93
2022-11-19T11:42:04.386Z,30.20
2022-11-19T11:45:01.015Z,29.30
2022-11-19T11:48:24.043Z,29.67
2022-11-19T11:51:33.756Z,30.10
2022-11-19T11:54:59.490Z,28.50
2022-11-19T11:58:34.795Z,27.37
2022-11-19T12:01:56.838Z,30.33
2022-11-19T12:05:13.519Z,30.12
2022-11-19T12:08:42.876Z,29.23
2022-11-19T12:12:16.561Z,30.07
2022-11-19T12:15:30.469Z,34.33
2022-11-19T12:18:53.598Z,32.38
2022-11-19T12:22:50.451Z,35.15
2022-11-19T12:26:15.653Z,33.72
2022-11-19T12:30:18.759Z,35.03
2022-11-19T12:33:44.824Z,33.97
2022-11-19T12:36:57.091Z,32.90
2022-11-19T12:40:40.215Z,33.10
2022-11-19T12:43:57.023Z,42.08
2022-11-19T12:47:48.687Z,36.30
2022-11-19T12:51:13.017Z,33.30
2022-11-19T12:54:45.499Z,33.28
2022-11-19T12:58:11.697Z,31.17
2022-11-19T13:01:25.888Z,34.17
2022-11-19T13:04:45.280Z,32.77
2022-11-19T13:08:03.766Z,32.28
2022-11-19T13:11:37.545Z,35.30
2022-11-19T13:15:09.797Z,34.50
2022-11-19T13:18:27.437Z,32.00
2022-11-19T13:21:56.817Z,34.50
2022-11-19T13:25:15.427Z,38.28
2022-11-19T13:29:09.113Z,33.40
2022-11-19T13:32:30.618Z,38.53
2022-11-19T13:35:46.877Z,43.72
2022-11-19T13:39:26.699Z,37.47
2022-11-19T13:42:58.950Z,40.70
2022-11-19T13:46:24.352Z,36.03
2022-11-19T13:49:53.642Z,39.08
2022-11-19T13:53:05.123Z,44.85
2022-11-19T13:56:24.415Z,41.97
2022-11-19T13:59:39.699Z,44.30
2022-11-19T14:03:07.525Z,41.00
2022-11-19T14:06:39.852Z,37.80
2022-11-19T14:09:53.941Z,42.15
2022-11-19T14:13:30.476Z,76.77
2022-11-19T14:17:11.349Z,64.78
2022-11-19T14:21:00.530Z,45.78
2022-11-19T14:24:52.410Z,42.65
2022-11-19T14:28:38.124Z,45.78
2022-11-19T14:32:01.490Z,44.27
2022-11-19T14:35:14.521Z,37.72
2022-11-19T14:38:33.691Z,36.72
2022-11-19T14:41:46.516Z,40.70
2022-11-19T14:45:03.093Z,43.87
2022-11-19T14:48:09.642Z,42.97
2022-11-19T14:51:19.100Z,40.60
2022-11-19T14:54:31.874Z,38.28
2022-11-19T14:57:47.532Z,38.63
2022-11-19T15:01:07.482Z,32.75
2022-11-19T15:04:14.467Z,31.77
2022-11-19T15:07:55.982Z,29.90
2022-11-19T15:11:09.804Z,32.53
2022-11-19T15:14:38.311Z,30.70
2022-11-19T15:17:57.717Z,29.75
2022-11-19T15:21:31.955Z,36.13
2022-11-19T15:25:30.380Z,31.58
2022-11-19T15:28:58.202Z,34.20
2022-11-19T15:32:26.506Z,31.20
2022-11-19T15:36:09.487Z,25.98
2022-11-19T15:39:31.993Z,27.03
2022-11-19T15:42:49.534Z,38.38
2022-11-19T15:46:30.906Z,35.05
2022-11-19T15:49:46.940Z,29.30
2022-11-19T15:53:08.557Z,30.50
2022-11-19T15:56:18.698Z,31.40
2022-11-19T15:59:43.395Z,30.58
2022-11-19T16:02:50.254Z,32.55
2022-11-19T16:06:08.543Z,34.80
2022-11-19T16:09:31.375Z,37.05
2022-11-19T16:13:18.392Z,41.13
2022-11-19T16:16:48.127Z,32.15
2022-11-19T16:20:10.550Z,32.97
2022-11-19T16:23:31.525Z,28.65
2022-11-19T16:26:55.735Z,30.85
2022-11-19T16:30:01.458Z,37.47
2022-11-19T16:33:05.917Z,32.30
2022-11-19T16:36:11.850Z,33.72
2022-11-19T16:39:36.542Z,25.10
2022-11-19T16:42:56.382Z,20.60
2022-11-19T16:46:01.014Z,32.43
2022-11-19T16:49:49.544Z,20.35
2022-11-19T16:52:54.631Z,27.52
2022-11-19T16:55:59.468Z,24.80
2022-11-19T16:59:06.545Z,32.67
2022-11-19T17:02:26.377Z,31.70
2022-11-19T17:05:52.568Z,28.60
2022-11-19T17:09:05.673Z,26.40
2022-11-19T17:12:38.697Z,24.92
2022-11-19T17:15:45.466Z,31.92
2022-11-19T17:18:55.952Z,30.90
2022-11-19T17:22:28.357Z,23.50
2022-11-19T17:25:50.486Z,28.62
2022-11-19T17:29:30.476Z,28.60
2022-11-19T17:32:44.184Z,22.95
2022-11-19T17:35:48.397Z,24.30
2022-11-19T17:38:59.508Z,22.98
2022-11-19T17:42:30.012Z,25.62
2022-11-19T17:45:46.732Z,25.73
2022-11-19T17:48:51.620Z,28.77
2022-11-19T17:52:01.028Z,24.03
2022-11-19T17:55:18.464Z,28.27
2022-11-19T17:58:30.356Z,28.75
2022-11-19T18:01:48.677Z,31.67
2022-11-19T18:05:09.471Z,31.15
2022-11-19T18:08:21.346Z,32.03
2022-11-19T18:11:32.435Z,27.92
2022-11-19T18:14:44.990Z,27.60
2022-11-19T18:17:57.675Z,29.58
2022-11-19T18:21:06.713Z,29.17
2022-11-19T18:24:26.474Z,27.97
2022-11-19T18:27:32.886Z,28.30
2022-11-19T18:30:57.496Z,27.92
2022-11-19T18:34:06.471Z,30.83
2022-11-19T18:37:26.471Z,27.45
2022-11-19T18:40:37.650Z,32.73
2022-11-19T18:44:02.465Z,35.22
2022-11-19T18:47:10.734Z,25.58
2022-11-19T18:50:30.569Z,29.05
2022-11-19T18:53:46.939Z,33.13
2022-11-19T18:57:02.444Z,30.87
2022-11-19T19:00:18.413Z,27.95
2022-11-19T19:03:31.509Z,33.00
2022-11-19T19:06:37.606Z,32.95
2022-11-19T19:09:52.170Z,25.80
2022-11-19T19:13:09.363Z,20.00
2022-11-19T19:16:26.332Z,31.90
2022-11-19T19:19:41.093Z,31.70
2022-11-19T19:22:51.502Z,34.90
2022-11-19T19:25:59.498Z,20.92
2022-11-19T19:29:11.473Z,28.40
2022-11-19T19:32:15.358Z,34.33
2022-11-19T19:35:25.872Z,31.70
2022-11-19T19:38:43.377Z,25.25
2022-11-19T19:42:03.690Z,25.90
2022-11-19T19:45:08.455Z,29.73
2022-11-19T19:48:15.515Z,33.70
2022-11-19T19:51:26.416Z,27.33
2022-11-19T19:54:40.928Z,27.87
2022-11-19T19:57:44.117Z,30.92
2022-11-19T20:00:50.637Z,26.70
2022-11-19T20:04:14.605Z,25.23
2022-11-19T20:07:17.756Z,30.50
2022-11-19T20:10:23.744Z,35.13
2022-11-19T20:13:31.687Z,27.00
2022-11-19T20:16:46.935Z,25.87
2022-11-19T20:19:55.512Z,23.25
2022-11-19T20:23:08.861Z,26.23
2022-11-19T20:26:17.635Z,28.05
2022-11-19T20:29:25.865Z,23.77
2022-11-19T20:32:38.720Z,25.90
2022-11-19T20:35:53.265Z,25.62
2022-11-19T20:39:12.702Z,21.67
2022-11-19T20:42:36.547Z,29.33
2022-11-19T20:45:46.840Z,25.55
2022-11-19T20:48:58.681Z,26.13
2022-11-19T20:52:08.833Z,27.15
2022-11-19T20:55:14.126Z,24.87
2022-11-19T20:58:29.687Z,24.42
2022-11-19T21:01:36.783Z,24.55
2022-11-19T21:04:41.722Z,19.37
2022-11-19T21:07:55.385Z,29.37
2022-11-19T21:11:08.373Z,22.02
2022-11-19T21:14:12.711Z,23.70
2022-11-19T21:17:30.534Z,26.02
2022-11-19T21:20:34.470Z,23.40
2022-11-19T21:23:42.412Z,27.50
2022-11-19T21:26:47.508Z,25.48
2022-11-19T21:29:57.328Z,22.95
2022-11-19T21:33:01.383Z,27.35
2022-11-19T21:36:13.388Z,23.63
2022-11-19T21:39:23.757Z,21.40
2022-11-19T21:42:27.936Z,24.77
2022-11-19T21:45:40.624Z,23.87
2022-11-19T21:48:52.400Z,24.87
2022-11-19T21:52:05.209Z,24.10
2022-11-19T21:55:09.197Z,24.17
2022-11-19T21:58:18.862Z,26.37
2022-11-19T22:01:31.383Z,22.90
2022-11-19T22:04:35.940Z,26.30
2022-11-19T22:07:42.520Z,23.37
2022-11-19T22:10:48.982Z,24.95
2022-11-19T22:13:54.440Z,25.73
2022-11-19T22:16:57.856Z,21.12
2022-11-19T22:20:01.043Z,24.08
2022-11-19T22:23:12.704Z,20.17
2022-11-19T22:26:16.835Z,21.65
2022-11-19T22:29:21.004Z,24.80
2022-11-19T22:32:26.597Z,23.12
2022-11-19T22:35:31.670Z,21.73
2022-11-19T22:38:44.296Z,23.20
2022-11-19T22:41:47.862Z,20.83
2022-11-19T22:44:51.384Z,22.65
2022-11-19T22:47:55.313Z,26.60
2022-11-19T22:50:59.143Z,21.35
2022-11-19T22:54:03.613Z,24.08
2022-11-19T22:57:14.592Z,22.73
2022-11-19T23:00:39.027Z,22.02
2022-11-19T23:03:43.085Z,23.95
2022-11-19T23:06:45.919Z,20.00
2022-11-19T23:09:48.751Z,22.25
2022-11-19T23:13:10.528Z,23.33
2022-11-19T23:16:17.613Z,26.00
2022-11-19T23:19:21.988Z,21.92
2022-11-19T23:22:27.018Z,21.53
2022-11-19T23:25:37.189Z,17.73
2022-11-19T23:28:42.372Z,24.55
2022-11-19T23:31:45.492Z,22.87
2022-11-19T23:34:54.377Z,24.60
2022-11-19T23:37:57.796Z,24.30
2022-11-19T23:41:03.419Z,22.98
2022-11-19T23:44:06.531Z,20.50
2022-11-19T23:47:09.031Z,19.58
2022-11-19T23:50:13.406Z,21.15
2022-11-19T23:53:16.074Z,22.93
2022-11-19T23:56:21.218Z,21.37
2022-11-19T23:59:25.916Z,19.45
